sensor_id;sensor_type;location;lat;lon;timestamp;temperature;humidity
7378;DHT22;3730;50.856;12.776;2023-03-14T00:02:20;10.20;99.90
7378;DHT22;3730;50.856;12.776;2023-03-14T00:04:45;10.10;99.90
7378;DHT22;3730;50.856;12.776;2023-03-14T00:07:12;11.20;99.90
7378;DHT22;3730;50.856;12.776;2023-03-14T00:09:38;11.90;99.90
7378;DHT22;3730;50.856;12.776;2023-03-14T00:12:03;10.10;99.90
7378;DHT22;3730;50.856;12.776;2023-03-14T00:14:30;10.10;99.90
7378;DHT22;3730;50.856;12.776;2023-03-14T00:16:56;10.30;99.90
7378;DHT22;3730;50.856;12.776;2023-03-14T00:19:21;10.10;99.90
7378;DHT22;3730;50.856;12.776;2023-03-14T00:21:47;10.20;99.90
7378;DHT22;3730;50.856;12.776;2023-03-14T00:24:13;10.20;99.90
7378;DHT22;3730;50.856;12.776;2023-03-14T00:26:39;10.20;99.90
7378;DHT22;3730;50.856;12.776;2023-03-14T00:29:04;10.20;99.90
7378;DHT22;3730;50.856;12.776;2023-03-14T00:31:30;10.20;99.90
7378;DHT22;3730;50.856;12.776;2023-03-14T00:33:56;10.20;99.90
7378;DHT22;3730;50.856;12.776;2023-03-14T00:36:22;10.20;99.90
7378;DHT22;3730;50.856;12.776;2023-03-14T00:38:50;10.20;99.90
7378;DHT22;3730;50.856;12.776;2023-03-14T00:41:21;10.20;99.90
7378;DHT22;3730;50.856;12.776;2023-03-14T00:43:48;10.20;99.90
7378;DHT22;3730;50.856;12.776;2023-03-14T00:46:14;10.30;99.90
7378;DHT22;3730;50.856;12.776;2023-03-14T00:48:40;10.40;99.90
7378;DHT22;3730;50.856;12.776;2023-03-14T00:51:07;10.30;99.90
7378;DHT22;3730;50.856;12.776;2023-03-14T00:53:37;10.50;99.90
7378;DHT22;3730;50.856;12.776;2023-03-14T00:56:08;10.20;99.90
7378;DHT22;3730;50.856;12.776;2023-03-14T00:58:34;10.20;99.90
7378;DHT22;3730;50.856;12.776;2023-03-14T01:01:06;10.20;99.90
7378;DHT22;3730;50.856;12.776;2023-03-14T01:03:31;10.20;99.90
7378;DHT22;3730;50.856;12.776;2023-03-14T01:06:07;10.20;99.90
7378;DHT22;3730;50.856;12.776;2023-03-14T01:08:33;10.20;99.90
7378;DHT22;3730;50.856;12.776;2023-03-14T01:10:58;10.20;99.90
7378;DHT22;3730;50.856;12.776;2023-03-14T01:13:24;10.20;99.90
7378;DHT22;3730;50.856;12.776;2023-03-14T01:15:49;10.20;99.90
7378;DHT22;3730;50.856;12.776;2023-03-14T01:18:15;10.20;99.90
7378;DHT22;3730;50.856;12.776;2023-03-14T01:20:41;10.20;99.90
7378;DHT22;3730;50.856;12.776;2023-03-14T01:23:06;10.10;99.90
7378;DHT22;3730;50.856;12.776;2023-03-14T01:25:32;10.20;99.90
7378;DHT22;3730;50.856;12.776;2023-03-14T01:27:57;11.00;99.90
7378;DHT22;3730;50.856;12.776;2023-03-14T01:30:23;10.20;99.90
7378;DHT22;3730;50.856;12.776;2023-03-14T01:32:49;10.80;99.90
7378;DHT22;3730;50.856;12.776;2023-03-14T01:35:14;10.20;99.90
7378;DHT22;3730;50.856;12.776;2023-03-14T01:37:40;10.10;99.90
7378;DHT22;3730;50.856;12.776;2023-03-14T01:40:06;10.20;99.90
7378;DHT22;3730;50.856;12.776;2023-03-14T01:42:32;10.20;99.90
7378;DHT22;3730;50.856;12.776;2023-03-14T01:45:00;10.20;99.90
7378;DHT22;3730;50.856;12.776;2023-03-14T01:47:26;10.10;99.90
7378;DHT22;3730;50.856;12.776;2023-03-14T01:49:59;10.50;99.90
7378;DHT22;3730;50.856;12.776;2023-03-14T01:52:34;10.20;99.90
7378;DHT22;3730;50.856;12.776;2023-03-14T01:55:12;10.20;99.90
7378;DHT22;3730;50.856;12.776;2023-03-14T01:57:56;10.10;99.90
7378;DHT22;3730;50.856;12.776;2023-03-14T02:00:24;10.20;99.90
7378;DHT22;3730;50.856;12.776;2023-03-14T02:02:53;10.30;99.90
7378;DHT22;3730;50.856;12.776;2023-03-14T02:05:23;10.50;99.90
7378;DHT22;3730;50.856;12.776;2023-03-14T02:07:53;10.70;99.90
7378;DHT22;3730;50.856;12.776;2023-03-14T02:10:22;10.30;99.90
7378;DHT22;3730;50.856;12.776;2023-03-14T02:12:49;10.40;99.90
7378;DHT22;3730;50.856;12.776;2023-03-14T02:15:16;10.30;99.90
7378;DHT22;3730;50.856;12.776;2023-03-14T02:17:42;10.30;99.90
7378;DHT22;3730;50.856;12.776;2023-03-14T02:22:37;10.30;99.90
7378;DHT22;3730;50.856;12.776;2023-03-14T02:26:43;10.30;99.90
7378;DHT22;3730;50.856;12.776;2023-03-14T02:28:36;10.30;99.90
7378;DHT22;3730;50.856;12.776;2023-03-14T02:31:02;10.30;99.90
7378;DHT22;3730;50.856;12.776;2023-03-14T02:33:28;10.20;99.90
7378;DHT22;3730;50.856;12.776;2023-03-14T02:35:58;11.00;99.90
7378;DHT22;3730;50.856;12.776;2023-03-14T02:38:55;10.20;99.90
7378;DHT22;3730;50.856;12.776;2023-03-14T02:41:21;10.20;99.90
7378;DHT22;3730;50.856;12.776;2023-03-14T02:43:46;10.20;99.90
7378;DHT22;3730;50.856;12.776;2023-03-14T02:46:14;10.30;99.90
7378;DHT22;3730;50.856;12.776;2023-03-14T02:48:49;10.10;99.90
7378;DHT22;3730;50.856;12.776;2023-03-14T02:51:16;10.10;99.90
7378;DHT22;3730;50.856;12.776;2023-03-14T02:53:42;10.00;99.90
7378;DHT22;3730;50.856;12.776;2023-03-14T02:56:09;10.00;99.90
7378;DHT22;3730;50.856;12.776;2023-03-14T02:58:35;10.00;99.90
7378;DHT22;3730;50.856;12.776;2023-03-14T03:01:01;10.00;99.90
7378;DHT22;3730;50.856;12.776;2023-03-14T03:03:26;10.00;99.90
7378;DHT22;3730;50.856;12.776;2023-03-14T03:05:53;10.20;99.90
7378;DHT22;3730;50.856;12.776;2023-03-14T03:08:21;10.00;99.90
7378;DHT22;3730;50.856;12.776;2023-03-14T03:10:47;9.90;99.90
7378;DHT22;3730;50.856;12.776;2023-03-14T03:13:13;10.60;99.90
7378;DHT22;3730;50.856;12.776;2023-03-14T12:22:57;11.50;99.90
7378;DHT22;3730;50.856;12.776;2023-03-14T12:25:29;11.60;99.90
7378;DHT22;3730;50.856;12.776;2023-03-14T12:30:26;12.50;99.90
7378;DHT22;3730;50.856;12.776;2023-03-14T12:33:19;11.90;99.90
7378;DHT22;3730;50.856;12.776;2023-03-14T12:36:02;12.00;99.90
7378;DHT22;3730;50.856;12.776;2023-03-14T12:38:43;11.90;99.90
7378;DHT22;3730;50.856;12.776;2023-03-14T12:43:45;11.90;99.90
7378;DHT22;3730;50.856;12.776;2023-03-14T12:46:15;11.80;99.90
7378;DHT22;3730;50.856;12.776;2023-03-14T12:48:45;11.80;99.90
7378;DHT22;3730;50.856;12.776;2023-03-14T12:51:16;11.70;99.90
7378;DHT22;3730;50.856;12.776;2023-03-14T13:02:21;11.30;99.90
7378;DHT22;3730;50.856;12.776;2023-03-14T13:05:03;11.20;99.90
7378;DHT22;3730;50.856;12.776;2023-03-14T13:10:23;11.20;99.90
7378;DHT22;3730;50.856;12.776;2023-03-14T13:12:50;11.20;99.90
7378;DHT22;3730;50.856;12.776;2023-03-14T13:15:29;11.20;99.90
7378;DHT22;3730;50.856;12.776;2023-03-14T13:18:02;11.20;99.90
7378;DHT22;3730;50.856;12.776;2023-03-14T13:20:34;11.20;99.90
7378;DHT22;3730;50.856;12.776;2023-03-14T13:23:00;11.40;99.90
7378;DHT22;3730;50.856;12.776;2023-03-14T13:25:33;11.60;99.90
7378;DHT22;3730;50.856;12.776;2023-03-14T13:28:01;11.50;99.90
7378;DHT22;3730;50.856;12.776;2023-03-14T13:30:28;11.50;99.90
7378;DHT22;3730;50.856;12.776;2023-03-14T13:33:03;11.70;99.90
7378;DHT22;3730;50.856;12.776;2023-03-14T13:35:40;11.90;99.90
7378;DHT22;3730;50.856;12.776;2023-03-14T13:38:16;12.50;99.90
7378;DHT22;3730;50.856;12.776;2023-03-14T13:43:31;12.10;99.90
7378;DHT22;3730;50.856;12.776;2023-03-14T13:46:16;12.10;99.90
7378;DHT22;3730;50.856;12.776;2023-03-14T13:48:48;12.10;99.90
7378;DHT22;3730;50.856;12.776;2023-03-14T13:51:17;13.00;99.90
7378;DHT22;3730;50.856;12.776;2023-03-14T13:53:51;12.20;99.90
7378;DHT22;3730;50.856;12.776;2023-03-14T13:56:21;12.10;99.90
7378;DHT22;3730;50.856;12.776;2023-03-14T13:58:48;12.00;99.90
7378;DHT22;3730;50.856;12.776;2023-03-14T14:01:22;12.10;99.90
7378;DHT22;3730;50.856;12.776;2023-03-14T14:03:54;12.10;99.90
7378;DHT22;3730;50.856;12.776;2023-03-14T14:06:38;12.10;99.90
7378;DHT22;3730;50.856;12.776;2023-03-14T14:14:12;12.10;99.90
7378;DHT22;3730;50.856;12.776;2023-03-14T14:16:39;12.20;99.90
7378;DHT22;3730;50.856;12.776;2023-03-14T15:04:15;12.30;99.90
7378;DHT22;3730;50.856;12.776;2023-03-14T15:06:46;11.90;99.90
7378;DHT22;3730;50.856;12.776;2023-03-14T15:14:05;11.90;99.90
7378;DHT22;3730;50.856;12.776;2023-03-14T15:16:32;12.10;99.90
7378;DHT22;3730;50.856;12.776;2023-03-14T15:43:33;11.40;99.90
7378;DHT22;3730;50.856;12.776;2023-03-14T16:05:33;10.10;99.90
7378;DHT22;3730;50.856;12.776;2023-03-14T16:07:59;9.90;99.90
